sensor_id;sensor_type;location;lat;lon;timestamp;P1;durP1;ratioP1;P2;durP2;ratioP2
64282;SDS011;50497;50.720;-2.084;2023-03-14T00:01:20;4.68;;;1.60;;
64282;SDS011;50497;50.720;-2.084;2023-03-14T00:03:46;4.53;;;1.63;;
64282;SDS011;50497;50.720;-2.084;2023-03-14T00:06:24;4.45;;;1.50;;
64282;SDS011;50497;50.720;-2.084;2023-03-14T00:09:05;5.10;;;1.45;;
64282;SDS011;50497;50.720;-2.084;2023-03-14T00:11:45;4.30;;;1.30;;
64282;SDS011;50497;50.720;-2.084;2023-03-14T00:14:11;3.47;;;1.23;;
64282;SDS011;50497;50.720;-2.084;2023-03-14T00:16:41;3.13;;;1.45;;
64282;SDS011;50497;50.720;-2.084;2023-03-14T00:19:11;3.47;;;1.20;;
64282;SDS011;50497;50.720;-2.084;2023-03-14T00:21:40;2.13;;;0.90;;
64282;SDS011;50497;50.720;-2.084;2023-03-14T00:24:13;3.75;;;1.00;;
64282;SDS011;50497;50.720;-2.084;2023-03-14T00:26:44;1.83;;;0.80;;
64282;SDS011;50497;50.720;-2.084;2023-03-14T00:29:13;3.40;;;0.90;;
64282;SDS011;50497;50.720;-2.084;2023-03-14T00:31:48;1.10;;;0.60;;
64282;SDS011;50497;50.720;-2.084;2023-03-14T00:34:13;2.58;;;1.00;;
64282;SDS011;50497;50.720;-2.084;2023-03-14T00:36:42;2.20;;;0.88;;
64282;SDS011;50497;50.720;-2.084;2023-03-14T00:39:07;3.25;;;0.90;;
64282;SDS011;50497;50.720;-2.084;2023-03-14T00:41:36;2.60;;;0.80;;
64282;SDS011;50497;50.720;-2.084;2023-03-14T00:44:07;3.72;;;1.30;;
64282;SDS011;50497;50.720;-2.084;2023-03-14T00:46:38;2.95;;;1.10;;
64282;SDS011;50497;50.720;-2.084;2023-03-14T00:49:07;4.15;;;1.00;;
64282;SDS011;50497;50.720;-2.084;2023-03-14T00:51:34;3.85;;;1.42;;
64282;SDS011;50497;50.720;-2.084;2023-03-14T00:54:00;2.60;;;0.88;;
64282;SDS011;50497;50.720;-2.084;2023-03-14T00:56:25;3.85;;;1.17;;
64282;SDS011;50497;50.720;-2.084;2023-03-14T00:58:54;5.55;;;1.30;;
64282;SDS011;50497;50.720;-2.084;2023-03-14T01:01:25;5.03;;;1.33;;
64282;SDS011;50497;50.720;-2.084;2023-03-14T01:03:51;5.88;;;1.17;;
64282;SDS011;50497;50.720;-2.084;2023-03-14T01:06:22;3.58;;;1.05;;
64282;SDS011;50497;50.720;-2.084;2023-03-14T01:08:53;7.35;;;1.52;;
64282;SDS011;50497;50.720;-2.084;2023-03-14T01:11:32;7.85;;;1.35;;
64282;SDS011;50497;50.720;-2.084;2023-03-14T01:14:00;4.55;;;1.30;;
64282;SDS011;50497;50.720;-2.084;2023-03-14T01:16:31;4.05;;;1.20;;
64282;SDS011;50497;50.720;-2.084;2023-03-14T01:18:58;7.03;;;1.50;;
64282;SDS011;50497;50.720;-2.084;2023-03-14T01:21:27;3.38;;;1.10;;
64282;SDS011;50497;50.720;-2.084;2023-03-14T01:23:55;6.63;;;1.50;;
64282;SDS011;50497;50.720;-2.084;2023-03-14T01:26:29;6.10;;;1.35;;
64282;SDS011;50497;50.720;-2.084;2023-03-14T01:29:00;4.38;;;1.40;;
64282;SDS011;50497;50.720;-2.084;2023-03-14T01:31:30;6.93;;;1.75;;
64282;SDS011;50497;50.720;-2.084;2023-03-14T01:33:57;3.05;;;1.17;;
64282;SDS011;50497;50.720;-2.084;2023-03-14T01:36:22;6.97;;;1.45;;
64282;SDS011;50497;50.720;-2.084;2023-03-14T01:38:48;7.85;;;1.48;;
64282;SDS011;50497;50.720;-2.084;2023-03-14T01:41:15;6.15;;;2.00;;
64282;SDS011;50497;50.720;-2.084;2023-03-14T01:43:44;5.97;;;1.67;;
64282;SDS011;50497;50.720;-2.084;2023-03-14T01:46:12;4.45;;;1.63;;
64282;SDS011;50497;50.720;-2.084;2023-03-14T01:49:09;4.55;;;1.30;;
64282;SDS011;50497;50.720;-2.084;2023-03-14T01:56:50;4.95;;;1.40;;
64282;SDS011;50497;50.720;-2.084;2023-03-14T01:59:37;8.35;;;1.55;;
64282;SDS011;50497;50.720;-2.084;2023-03-14T02:02:13;5.57;;;1.58;;
64282;SDS011;50497;50.720;-2.084;2023-03-14T02:04:41;5.35;;;1.30;;
64282;SDS011;50497;50.720;-2.084;2023-03-14T02:09:35;6.68;;;1.55;;
64282;SDS011;50497;50.720;-2.084;2023-03-14T02:12:03;8.68;;;1.80;;
64282;SDS011;50497;50.720;-2.084;2023-03-14T02:14:32;6.75;;;1.70;;
64282;SDS011;50497;50.720;-2.084;2023-03-14T02:17:00;3.92;;;1.35;;
64282;SDS011;50497;50.720;-2.084;2023-03-14T02:19:40;8.27;;;1.70;;
64282;SDS011;50497;50.720;-2.084;2023-03-14T02:22:16;6.93;;;1.80;;
64282;SDS011;50497;50.720;-2.084;2023-03-14T02:24:51;6.18;;;1.80;;
64282;SDS011;50497;50.720;-2.084;2023-03-14T02:27:21;5.15;;;1.35;;
64282;SDS011;50497;50.720;-2.084;2023-03-14T02:29:51;7.65;;;1.52;;
64282;SDS011;50497;50.720;-2.084;2023-03-14T02:32:20;5.32;;;1.38;;
64282;SDS011;50497;50.720;-2.084;2023-03-14T02:34:49;7.50;;;1.50;;
64282;SDS011;50497;50.720;-2.084;2023-03-14T02:37:21;5.93;;;1.55;;
64282;SDS011;50497;50.720;-2.084;2023-03-14T02:39:50;6.85;;;1.70;;
64282;SDS011;50497;50.720;-2.084;2023-03-14T02:42:21;3.53;;;1.23;;
64282;SDS011;50497;50.720;-2.084;2023-03-14T02:45:33;6.03;;;1.45;;
64282;SDS011;50497;50.720;-2.084;2023-03-14T02:47:35;5.35;;;1.60;;
64282;SDS011;50497;50.720;-2.084;2023-03-14T02:50:11;6.85;;;1.73;;
64282;SDS011;50497;50.720;-2.084;2023-03-14T02:52:39;7.22;;;1.40;;
64282;SDS011;50497;50.720;-2.084;2023-03-14T02:55:05;7.60;;;1.73;;
64282;SDS011;50497;50.720;-2.084;2023-03-14T02:57:31;4.72;;;1.25;;
64282;SDS011;50497;50.720;-2.084;2023-03-14T03:00:00;6.90;;;1.75;;
64282;SDS011;50497;50.720;-2.084;2023-03-14T03:02:29;7.40;;;1.50;;
64282;SDS011;50497;50.720;-2.084;2023-03-14T03:04:55;8.30;;;1.73;;
64282;SDS011;50497;50.720;-2.084;2023-03-14T03:07:21;7.00;;;1.50;;
64282;SDS011;50497;50.720;-2.084;2023-03-14T03:09:46;6.82;;;1.50;;
64282;SDS011;50497;50.720;-2.084;2023-03-14T03:12:12;7.32;;;1.50;;
64282;SDS011;50497;50.720;-2.084;2023-03-14T03:14:39;8.13;;;1.58;;
64282;SDS011;50497;50.720;-2.084;2023-03-14T03:17:05;11.20;;;1.90;;
64282;SDS011;50497;50.720;-2.084;2023-03-14T03:19:31;7.85;;;1.50;;
64282;SDS011;50497;50.720;-2.084;2023-03-14T03:21:57;11.25;;;3.13;;
64282;SDS011;50497;50.720;-2.084;2023-03-14T03:24:25;8.65;;;1.58;;
64282;SDS011;50497;50.720;-2.084;2023-03-14T03:26:51;8.80;;;1.58;;
64282;SDS011;50497;50.720;-2.084;2023-03-14T03:29:17;6.60;;;1.50;;
64282;SDS011;50497;50.720;-2.084;2023-03-14T03:31:43;7.00;;;1.50;;
64282;SDS011;50497;50.720;-2.084;2023-03-14T03:34:10;8.18;;;1.50;;
64282;SDS011;50497;50.720;-2.084;2023-03-14T03:36:37;9.50;;;1.48;;
64282;SDS011;50497;50.720;-2.084;2023-03-14T03:39:05;5.78;;;1.30;;
64282;SDS011;50497;50.720;-2.084;2023-03-14T03:41:33;8.43;;;1.63;;
64282;SDS011;50497;50.720;-2.084;2023-03-14T03:43:59;8.38;;;1.65;;
64282;SDS011;50497;50.720;-2.084;2023-03-14T03:46:24;7.78;;;1.60;;
64282;SDS011;50497;50.720;-2.084;2023-03-14T03:48:57;6.38;;;1.35;;
64282;SDS011;50497;50.720;-2.084;2023-03-14T03:51:23;5.55;;;1.40;;
64282;SDS011;50497;50.720;-2.084;2023-03-14T03:53:52;8.40;;;1.42;;
64282;SDS011;50497;50.720;-2.084;2023-03-14T03:56:17;8.45;;;1.45;;
64282;SDS011;50497;50.720;-2.084;2023-03-14T03:58:47;4.57;;;1.30;;
64282;SDS011;50497;50.720;-2.084;2023-03-14T04:01:14;6.72;;;1.60;;
64282;SDS011;50497;50.720;-2.084;2023-03-14T04:03:39;8.23;;;1.63;;
64282;SDS011;50497;50.720;-2.084;2023-03-14T04:06:06;12.23;;;1.90;;
64282;SDS011;50497;50.720;-2.084;2023-03-14T04:08:33;9.95;;;1.52;;
64282;SDS011;50497;50.720;-2.084;2023-03-14T04:11:00;8.13;;;1.73;;
64282;SDS011;50497;50.720;-2.084;2023-03-14T04:13:26;9.05;;;1.58;;
64282;SDS011;50497;50.720;-2.084;2023-03-14T04:15:56;7.03;;;1.85;;
64282;SDS011;50497;50.720;-2.084;2023-03-14T04:18:24;5.45;;;1.27;;
64282;SDS011;50497;50.720;-2.084;2023-03-14T04:20:53;7.68;;;1.50;;
64282;SDS011;50497;50.720;-2.084;2023-03-14T04:23:20;9.98;;;1.75;;
64282;SDS011;50497;50.720;-2.084;2023-03-14T04:25:48;6.05;;;1.40;;
64282;SDS011;50497;50.720;-2.084;2023-03-14T04:28:17;6.57;;;1.50;;
64282;SDS011;50497;50.720;-2.084;2023-03-14T04:30:43;9.48;;;1.70;;
64282;SDS011;50497;50.720;-2.084;2023-03-14T04:33:08;8.60;;;1.30;;
64282;SDS011;50497;50.720;-2.084;2023-03-14T04:35:37;7.50;;;1.50;;
64282;SDS011;50497;50.720;-2.084;2023-03-14T04:38:03;6.22;;;1.40;;
64282;SDS011;50497;50.720;-2.084;2023-03-14T04:40:28;3.40;;;1.20;;
64282;SDS011;50497;50.720;-2.084;2023-03-14T04:42:54;6.18;;;1.30;;
64282;SDS011;50497;50.720;-2.084;2023-03-14T04:45:23;6.28;;;1.20;;
64282;SDS011;50497;50.720;-2.084;2023-03-14T04:47:51;8.15;;;1.40;;
64282;SDS011;50497;50.720;-2.084;2023-03-14T04:50:16;8.23;;;1.50;;
64282;SDS011;50497;50.720;-2.084;2023-03-14T04:52:48;6.53;;;1.30;;
64282;SDS011;50497;50.720;-2.084;2023-03-14T04:55:14;4.30;;;1.15;;
64282;SDS011;50497;50.720;-2.084;2023-03-14T04:57:45;4.80;;;1.00;;
64282;SDS011;50497;50.720;-2.084;2023-03-14T05:00:13;5.78;;;1.60;;
64282;SDS011;50497;50.720;-2.084;2023-03-14T05:02:42;5.60;;;1.58;;
64282;SDS011;50497;50.720;-2.084;2023-03-14T05:05:14;4.43;;;1.10;;
64282;SDS011;50497;50.720;-2.084;2023-03-14T05:07:49;4.95;;;0.95;;
64282;SDS011;50497;50.720;-2.084;2023-03-14T05:10:19;7.03;;;1.67;;
64282;SDS011;50497;50.720;-2.084;2023-03-14T05:12:51;7.80;;;1.40;;
64282;SDS011;50497;50.720;-2.084;2023-03-14T05:15:16;6.30;;;1.40;;
64282;SDS011;50497;50.720;-2.084;2023-03-14T05:17:51;7.78;;;1.60;;
64282;SDS011;50497;50.720;-2.084;2023-03-14T05:20:19;5.15;;;1.20;;
64282;SDS011;50497;50.720;-2.084;2023-03-14T05:22:45;6.97;;;1.17;;
64282;SDS011;50497;50.720;-2.084;2023-03-14T05:25:17;9.30;;;1.88;;
64282;SDS011;50497;50.720;-2.084;2023-03-14T05:27:45;6.30;;;1.30;;
64282;SDS011;50497;50.720;-2.084;2023-03-14T05:30:13;6.20;;;1.20;;
64282;SDS011;50497;50.720;-2.084;2023-03-14T05:32:43;8.10;;;1.52;;
64282;SDS011;50497;50.720;-2.084;2023-03-14T05:35:08;9.60;;;1.73;;
64282;SDS011;50497;50.720;-2.084;2023-03-14T05:37:34;8.30;;;1.40;;
64282;SDS011;50497;50.720;-2.084;2023-03-14T05:40:03;8.40;;;1.63;;
64282;SDS011;50497;50.720;-2.084;2023-03-14T05:42:34;5.00;;;1.40;;
64282;SDS011;50497;50.720;-2.084;2023-03-14T05:45:03;5.35;;;1.60;;
64282;SDS011;50497;50.720;-2.084;2023-03-14T05:47:35;9.73;;;1.58;;
64282;SDS011;50497;50.720;-2.084;2023-03-14T05:50:10;7.00;;;1.63;;
64282;SDS011;50497;50.720;-2.084;2023-03-14T05:52:42;4.45;;;1.13;;
64282;SDS011;50497;50.720;-2.084;2023-03-14T05:55:10;8.07;;;1.40;;
64282;SDS011;50497;50.720;-2.084;2023-03-14T05:57:39;9.90;;;1.65;;
64282;SDS011;50497;50.720;-2.084;2023-03-14T06:00:08;6.68;;;1.30;;
64282;SDS011;50497;50.720;-2.084;2023-03-14T06:02:37;5.15;;;1.30;;
64282;SDS011;50497;50.720;-2.084;2023-03-14T06:05:11;7.10;;;1.50;;
64282;SDS011;50497;50.720;-2.084;2023-03-14T06:07:46;4.95;;;1.38;;
64282;SDS011;50497;50.720;-2.084;2023-03-14T06:10:14;5.40;;;1.30;;
64282;SDS011;50497;50.720;-2.084;2023-03-14T06:12:43;3.13;;;1.00;;
64282;SDS011;50497;50.720;-2.084;2023-03-14T06:15:11;4.45;;;1.27;;
64282;SDS011;50497;50.720;-2.084;2023-03-14T06:17:36;4.38;;;1.20;;
64282;SDS011;50497;50.720;-2.084;2023-03-14T06:20:05;4.57;;;1.10;;
64282;SDS011;50497;50.720;-2.084;2023-03-14T06:22:35;4.32;;;1.17;;
64282;SDS011;50497;50.720;-2.084;2023-03-14T06:25:01;9.13;;;1.35;;
64282;SDS011;50497;50.720;-2.084;2023-03-14T06:27:29;9.55;;;1.67;;
64282;SDS011;50497;50.720;-2.084;2023-03-14T06:29:55;8.27;;;1.40;;
64282;SDS011;50497;50.720;-2.084;2023-03-14T06:32:20;2.95;;;0.95;;
64282;SDS011;50497;50.720;-2.084;2023-03-14T06:34:48;4.78;;;1.30;;
64282;SDS011;50497;50.720;-2.084;2023-03-14T06:37:14;6.28;;;1.30;;
64282;SDS011;50497;50.720;-2.084;2023-03-14T06:39:42;3.60;;;0.80;;
64282;SDS011;50497;50.720;-2.084;2023-03-14T06:42:09;5.13;;;0.95;;
64282;SDS011;50497;50.720;-2.084;2023-03-14T06:44:42;3.60;;;1.10;;
64282;SDS011;50497;50.720;-2.084;2023-03-14T06:47:10;3.30;;;0.88;;
64282;SDS011;50497;50.720;-2.084;2023-03-14T06:49:36;4.78;;;1.17;;
64282;SDS011;50497;50.720;-2.084;2023-03-14T06:52:04;5.28;;;1.10;;
64282;SDS011;50497;50.720;-2.084;2023-03-14T06:54:30;4.40;;;1.00;;
64282;SDS011;50497;50.720;-2.084;2023-03-14T06:57:02;2.45;;;0.63;;
64282;SDS011;50497;50.720;-2.084;2023-03-14T06:59:27;3.40;;;0.93;;
64282;SDS011;50497;50.720;-2.084;2023-03-14T07:01:52;2.58;;;1.13;;
64282;SDS011;50497;50.720;-2.084;2023-03-14T07:04:18;3.38;;;1.10;;
64282;SDS011;50497;50.720;-2.084;2023-03-14T07:06:43;3.33;;;0.70;;
64282;SDS011;50497;50.720;-2.084;2023-03-14T07:09:12;4.97;;;1.10;;
64282;SDS011;50497;50.720;-2.084;2023-03-14T07:11:39;4.38;;;1.13;;
64282;SDS011;50497;50.720;-2.084;2023-03-14T07:14:04;5.40;;;1.10;;
64282;SDS011;50497;50.720;-2.084;2023-03-14T07:16:30;2.05;;;0.60;;
64282;SDS011;50497;50.720;-2.084;2023-03-14T07:18:58;1.92;;;0.70;;
64282;SDS011;50497;50.720;-2.084;2023-03-14T07:21:25;1.90;;;0.60;;
64282;SDS011;50497;50.720;-2.084;2023-03-14T07:23:51;2.95;;;1.10;;
64282;SDS011;50497;50.720;-2.084;2023-03-14T07:26:18;3.05;;;0.80;;
64282;SDS011;50497;50.720;-2.084;2023-03-14T07:28:47;3.00;;;0.77;;
64282;SDS011;50497;50.720;-2.084;2023-03-14T07:31:16;3.33;;;1.10;;
64282;SDS011;50497;50.720;-2.084;2023-03-14T07:33:44;3.97;;;1.02;;
64282;SDS011;50497;50.720;-2.084;2023-03-14T07:36:09;2.95;;;0.93;;
64282;SDS011;50497;50.720;-2.084;2023-03-14T07:38:49;5.82;;;1.13;;
64282;SDS011;50497;50.720;-2.084;2023-03-14T07:41:17;5.50;;;1.40;;
64282;SDS011;50497;50.720;-2.084;2023-03-14T07:43:43;3.17;;;0.90;;
64282;SDS011;50497;50.720;-2.084;2023-03-14T07:46:12;4.45;;;0.90;;
64282;SDS011;50497;50.720;-2.084;2023-03-14T07:48:38;2.20;;;0.93;;
64282;SDS011;50497;50.720;-2.084;2023-03-14T07:51:07;4.25;;;1.25;;
64282;SDS011;50497;50.720;-2.084;2023-03-14T07:53:33;1.98;;;0.80;;
64282;SDS011;50497;50.720;-2.084;2023-03-14T07:55:59;5.22;;;1.50;;
64282;SDS011;50497;50.720;-2.084;2023-03-14T07:58:29;4.18;;;0.90;;
64282;SDS011;50497;50.720;-2.084;2023-03-14T08:01:02;4.85;;;1.17;;
64282;SDS011;50497;50.720;-2.084;2023-03-14T08:03:32;3.95;;;1.00;;
64282;SDS011;50497;50.720;-2.084;2023-03-14T08:05:58;3.10;;;0.80;;
64282;SDS011;50497;50.720;-2.084;2023-03-14T08:08:24;4.60;;;1.08;;
64282;SDS011;50497;50.720;-2.084;2023-03-14T08:10:53;2.33;;;0.85;;
64282;SDS011;50497;50.720;-2.084;2023-03-14T08:13:19;3.75;;;1.08;;
64282;SDS011;50497;50.720;-2.084;2023-03-14T08:15:50;4.72;;;1.20;;
64282;SDS011;50497;50.720;-2.084;2023-03-14T08:18:16;5.00;;;1.10;;
64282;SDS011;50497;50.720;-2.084;2023-03-14T08:20:42;7.60;;;2.95;;
64282;SDS011;50497;50.720;-2.084;2023-03-14T08:23:07;4.97;;;1.45;;
64282;SDS011;50497;50.720;-2.084;2023-03-14T08:25:32;3.70;;;0.90;;
64282;SDS011;50497;50.720;-2.084;2023-03-14T08:27:58;3.33;;;1.00;;
64282;SDS011;50497;50.720;-2.084;2023-03-14T08:30:26;4.50;;;0.75;;
64282;SDS011;50497;50.720;-2.084;2023-03-14T08:32:52;2.88;;;0.95;;
64282;SDS011;50497;50.720;-2.084;2023-03-14T08:35:17;6.25;;;1.00;;
64282;SDS011;50497;50.720;-2.084;2023-03-14T08:37:45;6.05;;;1.27;;
64282;SDS011;50497;50.720;-2.084;2023-03-14T08:40:11;4.50;;;1.10;;
64282;SDS011;50497;50.720;-2.084;2023-03-14T08:42:45;5.68;;;1.27;;
64282;SDS011;50497;50.720;-2.084;2023-03-14T08:45:19;3.28;;;0.77;;
64282;SDS011;50497;50.720;-2.084;2023-03-14T08:47:47;4.07;;;1.00;;
64282;SDS011;50497;50.720;-2.084;2023-03-14T08:50:12;4.13;;;1.10;;
64282;SDS011;50497;50.720;-2.084;2023-03-14T08:52:38;6.03;;;1.48;;
64282;SDS011;50497;50.720;-2.084;2023-03-14T08:55:08;2.63;;;0.80;;
64282;SDS011;50497;50.720;-2.084;2023-03-14T08:57:34;3.55;;;0.88;;
64282;SDS011;50497;50.720;-2.084;2023-03-14T09:00:00;2.47;;;0.90;;
64282;SDS011;50497;50.720;-2.084;2023-03-14T09:02:26;4.50;;;1.15;;
64282;SDS011;50497;50.720;-2.084;2023-03-14T09:04:52;2.33;;;0.60;;
64282;SDS011;50497;50.720;-2.084;2023-03-14T09:07:18;3.90;;;1.17;;
64282;SDS011;50497;50.720;-2.084;2023-03-14T09:09:47;4.88;;;1.20;;
64282;SDS011;50497;50.720;-2.084;2023-03-14T09:12:14;4.22;;;0.95;;
64282;SDS011;50497;50.720;-2.084;2023-03-14T09:14:39;7.60;;;1.40;;
64282;SDS011;50497;50.720;-2.084;2023-03-14T09:17:08;4.47;;;1.27;;
64282;SDS011;50497;50.720;-2.084;2023-03-14T09:19:33;4.05;;;1.20;;
64282;SDS011;50497;50.720;-2.084;2023-03-14T09:22:02;4.70;;;1.30;;
64282;SDS011;50497;50.720;-2.084;2023-03-14T09:24:28;4.22;;;1.20;;
64282;SDS011;50497;50.720;-2.084;2023-03-14T09:26:54;6.22;;;1.48;;
64282;SDS011;50497;50.720;-2.084;2023-03-14T09:29:25;5.75;;;1.52;;
64282;SDS011;50497;50.720;-2.084;2023-03-14T09:31:51;7.00;;;1.50;;
64282;SDS011;50497;50.720;-2.084;2023-03-14T09:36:44;5.05;;;1.70;;
64282;SDS011;50497;50.720;-2.084;2023-03-14T09:39:10;5.35;;;1.70;;
64282;SDS011;50497;50.720;-2.084;2023-03-14T09:41:52;8.00;;;1.98;;
64282;SDS011;50497;50.720;-2.084;2023-03-14T09:44:28;6.45;;;2.08;;
64282;SDS011;50497;50.720;-2.084;2023-03-14T09:47:00;6.40;;;1.90;;
64282;SDS011;50497;50.720;-2.084;2023-03-14T09:49:34;6.85;;;2.00;;
64282;SDS011;50497;50.720;-2.084;2023-03-14T09:52:06;6.25;;;2.30;;
64282;SDS011;50497;50.720;-2.084;2023-03-14T09:57:28;5.65;;;1.70;;
64282;SDS011;50497;50.720;-2.084;2023-03-14T09:59:58;8.15;;;2.10;;
64282;SDS011;50497;50.720;-2.084;2023-03-14T10:02:40;4.68;;;1.40;;
64282;SDS011;50497;50.720;-2.084;2023-03-14T10:05:16;8.52;;;2.03;;
64282;SDS011;50497;50.720;-2.084;2023-03-14T10:07:43;3.50;;;1.13;;
64282;SDS011;50497;50.720;-2.084;2023-03-14T10:10:15;5.20;;;1.30;;
64282;SDS011;50497;50.720;-2.084;2023-03-14T10:12:45;5.22;;;1.23;;
64282;SDS011;50497;50.720;-2.084;2023-03-14T10:15:22;3.78;;;1.38;;
64282;SDS011;50497;50.720;-2.084;2023-03-14T10:17:59;6.22;;;1.40;;
64282;SDS011;50497;50.720;-2.084;2023-03-14T10:23:05;4.88;;;1.20;;
64282;SDS011;50497;50.720;-2.084;2023-03-14T10:25:46;5.13;;;;;
64282;SDS011;50497;50.720;-2.084;2023-03-14T10:28:28;5.85;;;1.30;;
64282;SDS011;50497;50.720;-2.084;2023-03-14T10:31:00;4.35;;;1.23;;
64282;SDS011;50497;50.720;-2.084;2023-03-14T10:33:29;4.78;;;1.40;;
64282;SDS011;50497;50.720;-2.084;2023-03-14T10:38:42;7.82;;;1.58;;
64282;SDS011;50497;50.720;-2.084;2023-03-14T10:41:19;4.47;;;1.40;;
64282;SDS011;50497;50.720;-2.084;2023-03-14T10:43:51;4.57;;;1.85;;
64282;SDS011;50497;50.720;-2.084;2023-03-14T10:46:23;6.03;;;1.40;;
64282;SDS011;50497;50.720;-2.084;2023-03-14T10:48:54;3.35;;;1.23;;
64282;SDS011;50497;50.720;-2.084;2023-03-14T10:51:32;1.90;;;1.00;;
64282;SDS011;50497;50.720;-2.084;2023-03-14T10:54:20;3.80;;;1.40;;
64282;SDS011;50497;50.720;-2.084;2023-03-14T10:56:55;2.60;;;1.00;;
64282;SDS011;50497;50.720;-2.084;2023-03-14T10:59:25;3.33;;;0.90;;
64282;SDS011;50497;50.720;-2.084;2023-03-14T11:01:58;3.95;;;1.20;;
64282;SDS011;50497;50.720;-2.084;2023-03-14T11:04:55;2.50;;;1.08;;
64282;SDS011;50497;50.720;-2.084;2023-03-14T11:07:43;2.95;;;1.15;;
64282;SDS011;50497;50.720;-2.084;2023-03-14T11:13:26;4.70;;;1.50;;
64282;SDS011;50497;50.720;-2.084;2023-03-14T11:18:48;3.97;;;1.83;;
64282;SDS011;50497;50.720;-2.084;2023-03-14T11:21:29;3.30;;;1.40;;
64282;SDS011;50497;50.720;-2.084;2023-03-14T11:24:08;1.70;;;0.98;;
64282;SDS011;50497;50.720;-2.084;2023-03-14T11:26:51;4.47;;;1.10;;
64282;SDS011;50497;50.720;-2.084;2023-03-14T11:32:38;3.25;;;1.33;;
64282;SDS011;50497;50.720;-2.084;2023-03-14T11:35:24;2.90;;;1.10;;
64282;SDS011;50497;50.720;-2.084;2023-03-14T11:40:58;2.75;;;1.20;;
64282;SDS011;50497;50.720;-2.084;2023-03-14T11:43:37;4.78;;;1.50;;
64282;SDS011;50497;50.720;-2.084;2023-03-14T11:46:15;1.58;;;0.80;;
64282;SDS011;50497;50.720;-2.084;2023-03-14T11:51:36;2.17;;;1.00;;
64282;SDS011;50497;50.720;-2.084;2023-03-14T11:54:08;2.15;;;0.90;;
64282;SDS011;50497;50.720;-2.084;2023-03-14T11:56:59;3.60;;;1.35;;
64282;SDS011;50497;50.720;-2.084;2023-03-14T11:59:45;2.90;;;1.00;;
64282;SDS011;50497;50.720;-2.084;2023-03-14T12:05:14;3.47;;;1.20;;
64282;SDS011;50497;50.720;-2.084;2023-03-14T12:13:15;2.10;;;0.98;;
64282;SDS011;50497;50.720;-2.084;2023-03-14T12:15:49;1.92;;;0.90;;
64282;SDS011;50497;50.720;-2.084;2023-03-14T12:18:21;3.17;;;1.10;;
64282;SDS011;50497;50.720;-2.084;2023-03-14T12:21:10;2.10;;;0.90;;
64282;SDS011;50497;50.720;-2.084;2023-03-14T12:23:53;2.08;;;0.88;;
64282;SDS011;50497;50.720;-2.084;2023-03-14T12:26:22;1.52;;;0.80;;
64282;SDS011;50497;50.720;-2.084;2023-03-14T12:34:39;1.60;;;0.90;;
64282;SDS011;50497;50.720;-2.084;2023-03-14T12:46:57;2.80;;;1.10;;
64282;SDS011;50497;50.720;-2.084;2023-03-14T12:49:48;2.17;;;1.15;;
64282;SDS011;50497;50.720;-2.084;2023-03-14T12:52:19;2.42;;;1.08;;
64282;SDS011;50497;50.720;-2.084;2023-03-14T12:54:51;3.50;;;1.00;;
64282;SDS011;50497;50.720;-2.084;2023-03-14T12:57:45;3.40;;;1.10;;
64282;SDS011;50497;50.720;-2.084;2023-03-14T13:00:34;1.98;;;1.10;;
64282;SDS011;50497;50.720;-2.084;2023-03-14T13:06:02;2.83;;;1.17;;
64282;SDS011;50497;50.720;-2.084;2023-03-14T13:08:38;2.55;;;1.17;;
64282;SDS011;50497;50.720;-2.084;2023-03-14T13:11:25;3.45;;;1.20;;
64282;SDS011;50497;50.720;-2.084;2023-03-14T13:13:56;2.08;;;1.00;;
64282;SDS011;50497;50.720;-2.084;2023-03-14T13:16:24;2.50;;;1.20;;
64282;SDS011;50497;50.720;-2.084;2023-03-14T13:18:59;2.30;;;1.00;;
64282;SDS011;50497;50.720;-2.084;2023-03-14T13:21:34;3.08;;;1.10;;
64282;SDS011;50497;50.720;-2.084;2023-03-14T13:24:04;1.95;;;1.00;;
64282;SDS011;50497;50.720;-2.084;2023-03-14T13:26:47;1.73;;;1.00;;
64282;SDS011;50497;50.720;-2.084;2023-03-14T13:29:19;1.35;;;0.80;;
64282;SDS011;50497;50.720;-2.084;2023-03-14T13:31:48;2.22;;;1.00;;
64282;SDS011;50497;50.720;-2.084;2023-03-14T13:34:24;2.65;;;1.02;;
64282;SDS011;50497;50.720;-2.084;2023-03-14T13:36:53;1.60;;;0.93;;
64282;SDS011;50497;50.720;-2.084;2023-03-14T13:39:20;3.17;;;1.52;;
64282;SDS011;50497;50.720;-2.084;2023-03-14T13:41:52;3.60;;;0.93;;
64282;SDS011;50497;50.720;-2.084;2023-03-14T13:44:38;3.72;;;0.95;;
64282;SDS011;50497;50.720;-2.084;2023-03-14T13:47:09;2.63;;;1.00;;
64282;SDS011;50497;50.720;-2.084;2023-03-14T13:49:39;2.40;;;1.10;;
64282;SDS011;50497;50.720;-2.084;2023-03-14T13:55:27;2.80;;;1.35;;
64282;SDS011;50497;50.720;-2.084;2023-03-14T13:57:58;3.33;;;1.20;;
64282;SDS011;50497;50.720;-2.084;2023-03-14T14:00:25;4.30;;;1.25;;
64282;SDS011;50497;50.720;-2.084;2023-03-14T14:02:56;3.20;;;1.40;;
64282;SDS011;50497;50.720;-2.084;2023-03-14T14:05:25;1.75;;;0.90;;
64282;SDS011;50497;50.720;-2.084;2023-03-14T14:07:57;5.47;;;2.10;;
64282;SDS011;50497;50.720;-2.084;2023-03-14T14:10:22;4.07;;;1.50;;
64282;SDS011;50497;50.720;-2.084;2023-03-14T14:13:11;3.47;;;1.33;;
64282;SDS011;50497;50.720;-2.084;2023-03-14T14:15:48;3.70;;;1.10;;
64282;SDS011;50497;50.720;-2.084;2023-03-14T14:18:16;2.75;;;1.10;;
64282;SDS011;50497;50.720;-2.084;2023-03-14T14:20:54;4.20;;;1.27;;
64282;SDS011;50497;50.720;-2.084;2023-03-14T14:23:25;3.65;;;1.10;;
64282;SDS011;50497;50.720;-2.084;2023-03-14T14:25:58;3.33;;;1.10;;
64282;SDS011;50497;50.720;-2.084;2023-03-14T14:28:36;3.17;;;1.20;;
64282;SDS011;50497;50.720;-2.084;2023-03-14T14:36:20;3.63;;;1.20;;
64282;SDS011;50497;50.720;-2.084;2023-03-14T14:39:38;4.40;;;1.35;;
64282;SDS011;50497;50.720;-2.084;2023-03-14T14:41:51;3.22;;;1.10;;
64282;SDS011;50497;50.720;-2.084;2023-03-14T14:44:21;3.30;;;1.20;;
64282;SDS011;50497;50.720;-2.084;2023-03-14T14:46:55;3.67;;;1.05;;
64282;SDS011;50497;50.720;-2.084;2023-03-14T14:49:31;2.25;;;1.20;;
64282;SDS011;50497;50.720;-2.084;2023-03-14T14:52:04;3.85;;;1.20;;
64282;SDS011;50497;50.720;-2.084;2023-03-14T14:54:37;4.70;;;1.20;;
64282;SDS011;50497;50.720;-2.084;2023-03-14T14:57:18;2.72;;;0.90;;
64282;SDS011;50497;50.720;-2.084;2023-03-14T14:59:54;2.70;;;1.00;;
64282;SDS011;50497;50.720;-2.084;2023-03-14T15:04:55;5.00;;;1.30;;
64282;SDS011;50497;50.720;-2.084;2023-03-14T15:07:22;6.20;;;1.10;;
64282;SDS011;50497;50.720;-2.084;2023-03-14T15:09:48;3.58;;;1.02;;
64282;SDS011;50497;50.720;-2.084;2023-03-14T15:12:18;5.22;;;1.40;;
64282;SDS011;50497;50.720;-2.084;2023-03-14T15:14:51;10.45;;;5.13;;
64282;SDS011;50497;50.720;-2.084;2023-03-14T15:17:16;2.67;;;1.08;;
64282;SDS011;50497;50.720;-2.084;2023-03-14T15:19:42;3.22;;;1.00;;
64282;SDS011;50497;50.720;-2.084;2023-03-14T15:22:13;5.38;;;1.65;;
64282;SDS011;50497;50.720;-2.084;2023-03-14T15:24:43;5.13;;;1.10;;
64282;SDS011;50497;50.720;-2.084;2023-03-14T15:27:15;3.47;;;1.00;;
64282;SDS011;50497;50.720;-2.084;2023-03-14T15:29:43;4.85;;;0.95;;
64282;SDS011;50497;50.720;-2.084;2023-03-14T15:32:14;3.10;;;1.05;;
64282;SDS011;50497;50.720;-2.084;2023-03-14T15:34:42;3.80;;;1.13;;
64282;SDS011;50497;50.720;-2.084;2023-03-14T15:37:14;3.80;;;1.40;;
64282;SDS011;50497;50.720;-2.084;2023-03-14T15:39:45;4.95;;;1.27;;
64282;SDS011;50497;50.720;-2.084;2023-03-14T15:42:14;4.20;;;1.10;;
64282;SDS011;50497;50.720;-2.084;2023-03-14T15:44:40;3.92;;;1.10;;
64282;SDS011;50497;50.720;-2.084;2023-03-14T15:47:08;2.97;;;1.00;;
64282;SDS011;50497;50.720;-2.084;2023-03-14T15:49:36;3.88;;;1.30;;
64282;SDS011;50497;50.720;-2.084;2023-03-14T15:52:04;5.22;;;1.00;;
64282;SDS011;50497;50.720;-2.084;2023-03-14T15:54:36;5.22;;;1.20;;
64282;SDS011;50497;50.720;-2.084;2023-03-14T15:57:02;2.78;;;0.82;;
64282;SDS011;50497;50.720;-2.084;2023-03-14T15:59:31;4.90;;;1.10;;
64282;SDS011;50497;50.720;-2.084;2023-03-14T16:01:57;5.47;;;1.00;;
64282;SDS011;50497;50.720;-2.084;2023-03-14T16:04:27;6.75;;;1.30;;